sensor_id;sensor_type;location;lat;lon;timestamp;pressure;altitude;pressure_sealevel;temperature;humidity
16806;BME280;8520;50.102;20.010;2022-08-19T00:00:28;97775.56;;;24.81;78.49
16806;BME280;8520;50.102;20.010;2022-08-19T00:03:17;97772.06;;;24.90;77.82
16806;BME280;8520;50.102;20.010;2022-08-19T00:06:06;97774.31;;;24.92;78.05
16806;BME280;8520;50.102;20.010;2022-08-19T00:08:56;97780.38;;;24.88;78.17
16806;BME280;8520;50.102;20.010;2022-08-19T00:11:47;97762.66;;;24.78;78.20
16806;BME280;8520;50.102;20.010;2022-08-19T00:14:36;97764.91;;;24.80;78.12
16806;BME280;8520;50.102;20.010;2022-08-19T00:17:25;97771.97;;;24.71;78.85
16806;BME280;8520;50.102;20.010;2022-08-19T00:20:16;97770.19;;;24.76;78.44
16806;BME280;8520;50.102;20.010;2022-08-19T00:23:05;97763.44;;;24.61;79.06
16806;BME280;8520;50.102;20.010;2022-08-19T00:25:55;97767.31;;;24.66;78.72
16806;BME280;8520;50.102;20.010;2022-08-19T00:28:43;97771.81;;;24.69;78.71
16806;BME280;8520;50.102;20.010;2022-08-19T00:31:32;97775.38;;;24.70;78.80
16806;BME280;8520;50.102;20.010;2022-08-19T00:34:21;97774.81;;;24.54;79.13
16806;BME280;8520;50.102;20.010;2022-08-19T00:37:10;97770.97;;;24.59;79.13
16806;BME280;8520;50.102;20.010;2022-08-19T00:39:59;97765.19;;;24.57;79.21
16806;BME280;8520;50.102;20.010;2022-08-19T00:42:49;97760.13;;;24.55;79.25
16806;BME280;8520;50.102;20.010;2022-08-19T00:45:41;97762.28;;;24.47;79.31
16806;BME280;8520;50.102;20.010;2022-08-19T00:48:31;97769.47;;;24.58;79.39
16806;BME280;8520;50.102;20.010;2022-08-19T00:51:20;97773.03;;;24.58;79.03
16806;BME280;8520;50.102;20.010;2022-08-19T00:54:10;97768.34;;;24.61;78.83
16806;BME280;8520;50.102;20.010;2022-08-19T00:57:01;97766.50;;;24.56;79.27
16806;BME280;8520;50.102;20.010;2022-08-19T00:59:55;97758.41;;;24.60;79.06
16806;BME280;8520;50.102;20.010;2022-08-19T01:02:49;97761.38;;;24.62;78.99
16806;BME280;8520;50.102;20.010;2022-08-19T01:05:39;97757.31;;;24.55;79.30
16806;BME280;8520;50.102;20.010;2022-08-19T01:08:29;97759.97;;;24.53;79.12
16806;BME280;8520;50.102;20.010;2022-08-19T01:11:17;97760.72;;;24.54;78.95
16806;BME280;8520;50.102;20.010;2022-08-19T01:14:07;97763.38;;;24.52;79.26
16806;BME280;8520;50.102;20.010;2022-08-19T01:16:57;97757.16;;;24.53;79.22
16806;BME280;8520;50.102;20.010;2022-08-19T01:19:56;97755.75;;;24.45;79.35
16806;BME280;8520;50.102;20.010;2022-08-19T01:22:47;97741.41;;;24.50;79.26
16806;BME280;8520;50.102;20.010;2022-08-19T01:25:42;97743.06;;;24.53;79.30
16806;BME280;8520;50.102;20.010;2022-08-19T01:28:32;97732.34;;;24.42;79.56
16806;BME280;8520;50.102;20.010;2022-08-19T01:31:28;97728.94;;;24.44;79.40
16806;BME280;8520;50.102;20.010;2022-08-19T01:34:18;97737.53;;;24.46;79.53
16806;BME280;8520;50.102;20.010;2022-08-19T01:37:09;97735.31;;;24.44;79.40
16806;BME280;8520;50.102;20.010;2022-08-19T01:39:59;97724.28;;;24.38;79.69
16806;BME280;8520;50.102;20.010;2022-08-19T01:42:53;97722.38;;;24.41;79.60
16806;BME280;8520;50.102;20.010;2022-08-19T01:45:42;97726.41;;;24.30;79.72
16806;BME280;8520;50.102;20.010;2022-08-19T01:48:33;97735.28;;;24.27;79.93
16806;BME280;8520;50.102;20.010;2022-08-19T01:51:22;97739.59;;;24.28;80.07
16806;BME280;8520;50.102;20.010;2022-08-19T01:54:12;97735.13;;;24.25;80.27
16806;BME280;8520;50.102;20.010;2022-08-19T01:57:20;97740.34;;;24.28;80.46
16806;BME280;8520;50.102;20.010;2022-08-19T02:00:12;97735.13;;;24.25;80.19
16806;BME280;8520;50.102;20.010;2022-08-19T02:03:02;97742.84;;;24.24;80.11
16806;BME280;8520;50.102;20.010;2022-08-19T02:05:55;97739.09;;;24.22;80.09
16806;BME280;8520;50.102;20.010;2022-08-19T02:08:43;97738.94;;;24.20;80.16
16806;BME280;8520;50.102;20.010;2022-08-19T02:11:37;97730.25;;;24.25;80.07
16806;BME280;8520;50.102;20.010;2022-08-19T02:14:27;97737.59;;;24.03;80.51
16806;BME280;8520;50.102;20.010;2022-08-19T02:17:15;97734.38;;;23.90;81.44
16806;BME280;8520;50.102;20.010;2022-08-19T02:20:06;97726.69;;;23.90;81.16
16806;BME280;8520;50.102;20.010;2022-08-19T02:22:55;97722.97;;;23.88;81.29
16806;BME280;8520;50.102;20.010;2022-08-19T02:25:44;97718.16;;;23.80;81.85
16806;BME280;8520;50.102;20.010;2022-08-19T02:28:35;97719.88;;;23.76;81.84
16806;BME280;8520;50.102;20.010;2022-08-19T02:31:25;97716.22;;;23.66;82.39
16806;BME280;8520;50.102;20.010;2022-08-19T02:34:15;97718.97;;;23.73;82.38
16806;BME280;8520;50.102;20.010;2022-08-19T02:37:03;97714.41;;;23.61;82.84
16806;BME280;8520;50.102;20.010;2022-08-19T02:39:52;97714.59;;;23.80;81.79
16806;BME280;8520;50.102;20.010;2022-08-19T02:42:39;97713.03;;;23.87;81.59
16806;BME280;8520;50.102;20.010;2022-08-19T02:45:32;97715.59;;;23.92;81.44
16806;BME280;8520;50.102;20.010;2022-08-19T02:48:23;97719.06;;;24.00;81.07
16806;BME280;8520;50.102;20.010;2022-08-19T02:51:16;97724.53;;;23.98;80.90
16806;BME280;8520;50.102;20.010;2022-08-19T02:54:05;97724.69;;;24.00;81.05
16806;BME280;8520;50.102;20.010;2022-08-19T02:56:54;97721.88;;;24.00;80.71
16806;BME280;8520;50.102;20.010;2022-08-19T02:59:43;97727.00;;;23.94;81.13
16806;BME280;8520;50.102;20.010;2022-08-19T03:02:31;97733.81;;;23.91;81.10
16806;BME280;8520;50.102;20.010;2022-08-19T03:05:21;97732.06;;;23.78;81.49
16806;BME280;8520;50.102;20.010;2022-08-19T03:08:30;97739.03;;;23.77;81.63
16806;BME280;8520;50.102;20.010;2022-08-19T03:11:21;97745.78;;;23.74;81.75
16806;BME280;8520;50.102;20.010;2022-08-19T03:14:10;97750.28;;;23.77;82.04
16806;BME280;8520;50.102;20.010;2022-08-19T03:16:59;97748.00;;;23.76;82.10
16806;BME280;8520;50.102;20.010;2022-08-19T03:19:48;97743.72;;;23.75;81.99
16806;BME280;8520;50.102;20.010;2022-08-19T03:22:38;97756.53;;;23.68;82.22
16806;BME280;8520;50.102;20.010;2022-08-19T03:25:26;97750.66;;;23.74;81.92
16806;BME280;8520;50.102;20.010;2022-08-19T03:28:15;97750.00;;;23.83;81.67
16806;BME280;8520;50.102;20.010;2022-08-19T03:31:06;97753.81;;;23.78;81.66
16806;BME280;8520;50.102;20.010;2022-08-19T03:34:18;97740.75;;;23.73;81.92
16806;BME280;8520;50.102;20.010;2022-08-19T03:37:09;97742.97;;;23.74;81.84
16806;BME280;8520;50.102;20.010;2022-08-19T03:40:00;97746.69;;;23.77;81.57
16806;BME280;8520;50.102;20.010;2022-08-19T03:42:50;97752.00;;;23.73;81.91
16806;BME280;8520;50.102;20.010;2022-08-19T03:45:42;97750.56;;;23.64;81.81
16806;BME280;8520;50.102;20.010;2022-08-19T03:48:31;97756.78;;;23.63;82.28
16806;BME280;8520;50.102;20.010;2022-08-19T03:51:22;97743.63;;;23.65;82.32
16806;BME280;8520;50.102;20.010;2022-08-19T03:54:20;97747.75;;;23.64;82.26
16806;BME280;8520;50.102;20.010;2022-08-19T03:57:11;97751.16;;;23.63;82.31
16806;BME280;8520;50.102;20.010;2022-08-19T03:59:59;97757.53;;;23.55;82.46
16806;BME280;8520;50.102;20.010;2022-08-19T04:02:59;97762.00;;;23.59;82.24
16806;BME280;8520;50.102;20.010;2022-08-19T04:05:49;97752.81;;;23.58;82.16
16806;BME280;8520;50.102;20.010;2022-08-19T04:08:38;97754.16;;;23.57;82.65
16806;BME280;8520;50.102;20.010;2022-08-19T04:11:28;97750.59;;;23.56;82.63
16806;BME280;8520;50.102;20.010;2022-08-19T04:14:32;97747.47;;;23.52;82.48
16806;BME280;8520;50.102;20.010;2022-08-19T04:17:20;97748.78;;;23.51;82.42
16806;BME280;8520;50.102;20.010;2022-08-19T04:20:10;97742.75;;;23.55;82.36
16806;BME280;8520;50.102;20.010;2022-08-19T04:22:59;97738.13;;;23.50;82.12
16806;BME280;8520;50.102;20.010;2022-08-19T04:25:47;97742.81;;;23.47;82.56
16806;BME280;8520;50.102;20.010;2022-08-19T04:28:35;97751.72;;;23.36;83.44
16806;BME280;8520;50.102;20.010;2022-08-19T04:31:27;97761.16;;;23.48;82.98
16806;BME280;8520;50.102;20.010;2022-08-19T04:34:17;97759.34;;;23.43;83.07
16806;BME280;8520;50.102;20.010;2022-08-19T04:37:09;97747.84;;;23.49;82.92
16806;BME280;8520;50.102;20.010;2022-08-19T04:39:59;97750.03;;;23.58;82.69
16806;BME280;8520;50.102;20.010;2022-08-19T04:43:05;97751.22;;;23.47;82.86
16806;BME280;8520;50.102;20.010;2022-08-19T04:45:53;97761.69;;;23.54;82.78
16806;BME280;8520;50.102;20.010;2022-08-19T04:48:48;97770.25;;;23.64;82.60
16806;BME280;8520;50.102;20.010;2022-08-19T04:51:40;97779.09;;;23.61;83.05
16806;BME280;8520;50.102;20.010;2022-08-19T04:54:29;97782.13;;;23.80;82.72
16806;BME280;8520;50.102;20.010;2022-08-19T04:57:25;97786.94;;;23.87;82.27
16806;BME280;8520;50.102;20.010;2022-08-19T05:00:14;97799.34;;;24.01;81.74
16806;BME280;8520;50.102;20.010;2022-08-19T05:03:02;97799.59;;;24.13;81.37
16806;BME280;8520;50.102;20.010;2022-08-19T05:05:55;97799.38;;;24.19;81.08
16806;BME280;8520;50.102;20.010;2022-08-19T05:08:43;97799.69;;;24.23;81.13
16806;BME280;8520;50.102;20.010;2022-08-19T05:11:34;97796.88;;;24.23;80.69
16806;BME280;8520;50.102;20.010;2022-08-19T05:14:23;97804.63;;;24.39;80.52
16806;BME280;8520;50.102;20.010;2022-08-19T05:17:12;97803.94;;;24.66;79.30
16806;BME280;8520;50.102;20.010;2022-08-19T05:20:20;97804.50;;;24.82;79.07
16806;BME280;8520;50.102;20.010;2022-08-19T05:23:27;97803.56;;;24.96;77.94
16806;BME280;8520;50.102;20.010;2022-08-19T05:26:16;97815.06;;;25.08;78.02
16806;BME280;8520;50.102;20.010;2022-08-19T05:29:05;97808.59;;;25.15;77.52
16806;BME280;8520;50.102;20.010;2022-08-19T05:31:56;97799.69;;;25.19;77.36
16806;BME280;8520;50.102;20.010;2022-08-19T05:34:45;97807.47;;;25.28;77.15
16806;BME280;8520;50.102;20.010;2022-08-19T05:37:33;97818.69;;;25.45;76.77
16806;BME280;8520;50.102;20.010;2022-08-19T05:40:23;97821.53;;;25.55;76.09
16806;BME280;8520;50.102;20.010;2022-08-19T05:43:13;97809.81;;;25.59;76.15
16806;BME280;8520;50.102;20.010;2022-08-19T05:46:02;97806.72;;;25.64;75.58
16806;BME280;8520;50.102;20.010;2022-08-19T05:48:52;97807.38;;;25.72;75.50
16806;BME280;8520;50.102;20.010;2022-08-19T05:51:43;97808.25;;;25.75;75.29
16806;BME280;8520;50.102;20.010;2022-08-19T05:54:31;97808.28;;;25.85;74.67
16806;BME280;8520;50.102;20.010;2022-08-19T05:57:23;97800.28;;;25.91;74.87
16806;BME280;8520;50.102;20.010;2022-08-19T06:00:12;97802.53;;;25.92;75.25
16806;BME280;8520;50.102;20.010;2022-08-19T06:03:01;97811.28;;;25.96;75.38
16806;BME280;8520;50.102;20.010;2022-08-19T06:05:59;97812.34;;;26.11;74.37
16806;BME280;8520;50.102;20.010;2022-08-19T06:08:47;97801.66;;;26.19;74.74
16806;BME280;8520;50.102;20.010;2022-08-19T06:11:40;97796.91;;;26.21;74.46
16806;BME280;8520;50.102;20.010;2022-08-19T06:14:33;97800.34;;;26.20;75.14
16806;BME280;8520;50.102;20.010;2022-08-19T06:17:28;97802.78;;;26.43;74.42
16806;BME280;8520;50.102;20.010;2022-08-19T06:20:18;97800.69;;;26.53;73.77
16806;BME280;8520;50.102;20.010;2022-08-19T06:23:27;97798.00;;;26.64;73.83
16806;BME280;8520;50.102;20.010;2022-08-19T06:26:17;97804.38;;;26.75;73.20
16806;BME280;8520;50.102;20.010;2022-08-19T06:29:07;97808.22;;;26.89;73.38
16806;BME280;8520;50.102;20.010;2022-08-19T06:32:11;97812.63;;;27.21;72.10
16806;BME280;8520;50.102;20.010;2022-08-19T06:34:59;97816.28;;;27.43;71.61
16806;BME280;8520;50.102;20.010;2022-08-19T06:37:48;97821.75;;;27.50;71.25
16806;BME280;8520;50.102;20.010;2022-08-19T06:40:36;97816.34;;;27.74;70.83
16806;BME280;8520;50.102;20.010;2022-08-19T06:43:25;97821.16;;;27.93;70.41
16806;BME280;8520;50.102;20.010;2022-08-19T06:46:16;97822.78;;;27.96;69.41
16806;BME280;8520;50.102;20.010;2022-08-19T06:49:07;97822.66;;;28.15;69.43
16806;BME280;8520;50.102;20.010;2022-08-19T06:51:59;97822.00;;;28.26;69.88
16806;BME280;8520;50.102;20.010;2022-08-19T06:54:48;97825.44;;;28.46;68.90
16806;BME280;8520;50.102;20.010;2022-08-19T06:57:42;97830.09;;;28.63;68.69
16806;BME280;8520;50.102;20.010;2022-08-19T07:00:33;97829.94;;;28.82;68.44
16806;BME280;8520;50.102;20.010;2022-08-19T07:03:21;97835.53;;;28.92;66.96
16806;BME280;8520;50.102;20.010;2022-08-19T07:06:14;97848.88;;;29.01;66.77
16806;BME280;8520;50.102;20.010;2022-08-19T07:09:24;97850.28;;;29.24;66.04
16806;BME280;8520;50.102;20.010;2022-08-19T07:12:13;97853.16;;;29.35;65.85
16806;BME280;8520;50.102;20.010;2022-08-19T07:15:03;97853.31;;;29.49;66.13
16806;BME280;8520;50.102;20.010;2022-08-19T07:17:52;97853.22;;;29.70;65.54
16806;BME280;8520;50.102;20.010;2022-08-19T07:20:41;97848.03;;;29.79;65.03
16806;BME280;8520;50.102;20.010;2022-08-19T07:23:32;97847.41;;;29.80;64.51
16806;BME280;8520;50.102;20.010;2022-08-19T07:26:22;97848.50;;;29.98;64.03
16806;BME280;8520;50.102;20.010;2022-08-19T07:29:14;97845.41;;;30.06;64.44
16806;BME280;8520;50.102;20.010;2022-08-19T07:32:05;97836.94;;;30.18;63.89
16806;BME280;8520;50.102;20.010;2022-08-19T07:34:59;97843.69;;;30.36;63.13
16806;BME280;8520;50.102;20.010;2022-08-19T07:37:50;97844.13;;;30.44;63.53
16806;BME280;8520;50.102;20.010;2022-08-19T07:40:42;97847.06;;;30.58;62.61
16806;BME280;8520;50.102;20.010;2022-08-19T07:43:33;97854.63;;;30.65;63.13
16806;BME280;8520;50.102;20.010;2022-08-19T07:46:21;97849.69;;;30.66;63.45
16806;BME280;8520;50.102;20.010;2022-08-19T07:49:11;97854.56;;;30.77;62.80
16806;BME280;8520;50.102;20.010;2022-08-19T07:52:06;97859.69;;;30.67;62.91
16806;BME280;8520;50.102;20.010;2022-08-19T07:54:55;97856.00;;;30.90;62.48
16806;BME280;8520;50.102;20.010;2022-08-19T07:57:45;97858.34;;;30.93;61.53
16806;BME280;8520;50.102;20.010;2022-08-19T08:00:34;97865.56;;;30.82;60.26
16806;BME280;8520;50.102;20.010;2022-08-19T08:03:24;97866.47;;;30.99;60.00
16806;BME280;8520;50.102;20.010;2022-08-19T08:06:32;97873.50;;;31.09;60.30
16806;BME280;8520;50.102;20.010;2022-08-19T08:09:41;97874.00;;;31.31;59.68
16806;BME280;8520;50.102;20.010;2022-08-19T08:12:38;97872.88;;;31.36;59.13
16806;BME280;8520;50.102;20.010;2022-08-19T08:15:30;97874.91;;;31.48;58.37
16806;BME280;8520;50.102;20.010;2022-08-19T08:18:19;97871.66;;;31.67;57.30
16806;BME280;8520;50.102;20.010;2022-08-19T08:21:07;97880.47;;;31.85;57.50
16806;BME280;8520;50.102;20.010;2022-08-19T08:23:56;97890.31;;;31.95;56.99
16806;BME280;8520;50.102;20.010;2022-08-19T08:26:50;97875.84;;;32.05;56.85
16806;BME280;8520;50.102;20.010;2022-08-19T08:29:43;97876.28;;;32.13;57.21
16806;BME280;8520;50.102;20.010;2022-08-19T08:32:33;97870.25;;;32.35;56.25
16806;BME280;8520;50.102;20.010;2022-08-19T08:35:24;97878.41;;;32.40;55.25
16806;BME280;8520;50.102;20.010;2022-08-19T08:38:13;97880.69;;;32.44;55.86
16806;BME280;8520;50.102;20.010;2022-08-19T08:41:07;97886.13;;;32.38;56.52
16806;BME280;8520;50.102;20.010;2022-08-19T08:43:58;97878.78;;;32.62;55.91
16806;BME280;8520;50.102;20.010;2022-08-19T08:46:49;97872.31;;;32.75;55.68
16806;BME280;8520;50.102;20.010;2022-08-19T08:49:45;97870.91;;;32.90;55.18
16806;BME280;8520;50.102;20.010;2022-08-19T08:52:41;97874.72;;;32.81;55.71
16806;BME280;8520;50.102;20.010;2022-08-19T08:55:32;97876.81;;;32.94;54.89
16806;BME280;8520;50.102;20.010;2022-08-19T08:58:27;97872.91;;;33.17;54.66
16806;BME280;8520;50.102;20.010;2022-08-19T09:01:17;97865.72;;;33.16;55.11
16806;BME280;8520;50.102;20.010;2022-08-19T09:04:07;97865.56;;;33.12;54.87
16806;BME280;8520;50.102;20.010;2022-08-19T09:07:06;97866.28;;;33.42;54.28
16806;BME280;8520;50.102;20.010;2022-08-19T09:10:23;97866.56;;;33.48;54.35
16806;BME280;8520;50.102;20.010;2022-08-19T09:13:21;97868.88;;;33.67;53.77
16806;BME280;8520;50.102;20.010;2022-08-19T09:16:17;97863.97;;;33.86;52.76
16806;BME280;8520;50.102;20.010;2022-08-19T09:19:14;97865.28;;;33.99;50.95
16806;BME280;8520;50.102;20.010;2022-08-19T09:22:09;97865.84;;;34.11;52.25
16806;BME280;8520;50.102;20.010;2022-08-19T09:24:58;97864.59;;;34.16;52.51
16806;BME280;8520;50.102;20.010;2022-08-19T09:27:47;97867.09;;;34.23;51.90
16806;BME280;8520;50.102;20.010;2022-08-19T09:30:40;97858.50;;;34.23;52.17
16806;BME280;8520;50.102;20.010;2022-08-19T09:33:28;97855.06;;;34.27;52.00
16806;BME280;8520;50.102;20.010;2022-08-19T09:36:20;97850.44;;;34.36;52.27
16806;BME280;8520;50.102;20.010;2022-08-19T09:39:22;97846.03;;;34.48;51.19
16806;BME280;8520;50.102;20.010;2022-08-19T09:42:21;97843.34;;;34.70;51.50
16806;BME280;8520;50.102;20.010;2022-08-19T09:45:21;97850.22;;;34.81;51.20
16806;BME280;8520;50.102;20.010;2022-08-19T09:48:10;97840.22;;;34.82;51.24
16806;BME280;8520;50.102;20.010;2022-08-19T09:51:11;97843.84;;;35.00;51.40
16806;BME280;8520;50.102;20.010;2022-08-19T09:54:01;97838.84;;;35.19;51.50
16806;BME280;8520;50.102;20.010;2022-08-19T09:56:52;97847.44;;;35.01;51.00
16806;BME280;8520;50.102;20.010;2022-08-19T09:59:41;97841.31;;;35.09;50.72
16806;BME280;8520;50.102;20.010;2022-08-19T10:02:31;97836.09;;;35.21;50.38
16806;BME280;8520;50.102;20.010;2022-08-19T10:05:20;97832.31;;;35.16;50.20
16806;BME280;8520;50.102;20.010;2022-08-19T10:08:32;97839.59;;;35.19;49.35
16806;BME280;8520;50.102;20.010;2022-08-19T10:11:21;97834.25;;;35.29;48.93
16806;BME280;8520;50.102;20.010;2022-08-19T10:14:23;97824.47;;;35.54;47.88
16806;BME280;8520;50.102;20.010;2022-08-19T10:17:12;97830.59;;;35.65;48.32
16806;BME280;8520;50.102;20.010;2022-08-19T10:20:08;97827.88;;;35.69;47.42
16806;BME280;8520;50.102;20.010;2022-08-19T10:22:56;97822.25;;;35.90;46.65
16806;BME280;8520;50.102;20.010;2022-08-19T10:25:48;97820.19;;;35.93;47.01
16806;BME280;8520;50.102;20.010;2022-08-19T10:28:36;97824.81;;;36.02;46.53
16806;BME280;8520;50.102;20.010;2022-08-19T10:31:32;97817.31;;;36.13;45.83
16806;BME280;8520;50.102;20.010;2022-08-19T10:34:40;97812.81;;;36.08;46.25
16806;BME280;8520;50.102;20.010;2022-08-19T10:37:36;97807.50;;;36.20;46.60
16806;BME280;8520;50.102;20.010;2022-08-19T10:40:43;97811.59;;;36.13;46.84
16806;BME280;8520;50.102;20.010;2022-08-19T10:43:32;97811.66;;;36.15;46.53
16806;BME280;8520;50.102;20.010;2022-08-19T10:46:23;97814.97;;;36.07;46.39
16806;BME280;8520;50.102;20.010;2022-08-19T10:49:13;97820.38;;;36.19;46.01
16806;BME280;8520;50.102;20.010;2022-08-19T10:52:04;97821.50;;;36.10;47.28
16806;BME280;8520;50.102;20.010;2022-08-19T10:55:21;97823.84;;;36.15;46.99
16806;BME280;8520;50.102;20.010;2022-08-19T10:58:27;97816.31;;;36.26;46.17
16806;BME280;8520;50.102;20.010;2022-08-19T11:01:15;97819.66;;;36.18;47.31
16806;BME280;8520;50.102;20.010;2022-08-19T11:04:04;97819.13;;;36.24;47.02
16806;BME280;8520;50.102;20.010;2022-08-19T11:06:57;97826.28;;;36.23;46.78
16806;BME280;8520;50.102;20.010;2022-08-19T11:09:46;97825.59;;;36.44;46.61
16806;BME280;8520;50.102;20.010;2022-08-19T11:12:36;97815.97;;;36.36;46.72
16806;BME280;8520;50.102;20.010;2022-08-19T11:15:26;97818.44;;;36.45;46.49
16806;BME280;8520;50.102;20.010;2022-08-19T11:18:18;97806.38;;;36.49;47.54
16806;BME280;8520;50.102;20.010;2022-08-19T11:21:09;97797.22;;;36.55;46.61
16806;BME280;8520;50.102;20.010;2022-08-19T11:24:02;97800.88;;;36.57;46.66
16806;BME280;8520;50.102;20.010;2022-08-19T11:26:53;97792.13;;;36.75;46.13
16806;BME280;8520;50.102;20.010;2022-08-19T11:29:43;97791.84;;;36.87;45.95
16806;BME280;8520;50.102;20.010;2022-08-19T11:32:32;97787.56;;;37.12;45.87
16806;BME280;8520;50.102;20.010;2022-08-19T11:35:20;97788.78;;;37.28;45.42
16806;BME280;8520;50.102;20.010;2022-08-19T11:38:10;97783.53;;;37.21;45.34
16806;BME280;8520;50.102;20.010;2022-08-19T11:41:04;97784.25;;;37.21;45.22
16806;BME280;8520;50.102;20.010;2022-08-19T11:43:54;97776.72;;;37.32;44.44
16806;BME280;8520;50.102;20.010;2022-08-19T11:46:44;97787.22;;;37.47;44.51
16806;BME280;8520;50.102;20.010;2022-08-19T11:49:33;97782.59;;;37.62;45.20
16806;BME280;8520;50.102;20.010;2022-08-19T11:52:23;97772.25;;;37.51;45.85
16806;BME280;8520;50.102;20.010;2022-08-19T11:55:13;97774.56;;;37.82;45.52
16806;BME280;8520;50.102;20.010;2022-08-19T11:58:03;97776.47;;;38.26;44.66
16806;BME280;8520;50.102;20.010;2022-08-19T12:01:05;97779.09;;;38.18;44.08
16806;BME280;8520;50.102;20.010;2022-08-19T12:03:55;97785.59;;;38.74;43.39
16806;BME280;8520;50.102;20.010;2022-08-19T12:06:44;97789.16;;;39.05;42.35
16806;BME280;8520;50.102;20.010;2022-08-19T12:09:33;97781.47;;;39.47;42.16
16806;BME280;8520;50.102;20.010;2022-08-19T12:12:29;97782.59;;;40.02;40.49
16806;BME280;8520;50.102;20.010;2022-08-19T12:15:19;97784.66;;;40.36;40.08
16806;BME280;8520;50.102;20.010;2022-08-19T12:18:08;97786.41;;;40.53;39.37
16806;BME280;8520;50.102;20.010;2022-08-19T12:20:57;97788.19;;;40.75;39.09
16806;BME280;8520;50.102;20.010;2022-08-19T12:23:48;97784.22;;;41.51;38.38
16806;BME280;8520;50.102;20.010;2022-08-19T12:26:41;97780.44;;;41.34;37.64
16806;BME280;8520;50.102;20.010;2022-08-19T12:29:39;97774.63;;;41.92;37.31
16806;BME280;8520;50.102;20.010;2022-08-19T12:32:30;97776.63;;;42.50;37.08
16806;BME280;8520;50.102;20.010;2022-08-19T12:35:18;97786.91;;;42.66;37.41
16806;BME280;8520;50.102;20.010;2022-08-19T12:38:08;97778.56;;;43.10;37.34
16806;BME280;8520;50.102;20.010;2022-08-19T12:40:56;97784.63;;;43.69;35.98
16806;BME280;8520;50.102;20.010;2022-08-19T12:43:46;97773.72;;;43.54;36.30
16806;BME280;8520;50.102;20.010;2022-08-19T12:46:36;97772.25;;;43.51;36.28
16806;BME280;8520;50.102;20.010;2022-08-19T12:49:28;97777.38;;;43.64;36.05
16806;BME280;8520;50.102;20.010;2022-08-19T12:52:38;97774.38;;;43.36;35.59
16806;BME280;8520;50.102;20.010;2022-08-19T12:55:29;97766.41;;;43.42;34.85
16806;BME280;8520;50.102;20.010;2022-08-19T12:58:18;97764.25;;;43.49;35.48
16806;BME280;8520;50.102;20.010;2022-08-19T13:01:15;97761.34;;;43.47;35.89
16806;BME280;8520;50.102;20.010;2022-08-19T13:04:08;97758.47;;;43.51;36.81
16806;BME280;8520;50.102;20.010;2022-08-19T13:06:58;97758.50;;;43.57;36.18
16806;BME280;8520;50.102;20.010;2022-08-19T13:09:47;97759.22;;;43.62;35.69
16806;BME280;8520;50.102;20.010;2022-08-19T13:12:35;97758.44;;;43.39;35.89
16806;BME280;8520;50.102;20.010;2022-08-19T13:15:24;97765.47;;;43.05;35.01
16806;BME280;8520;50.102;20.010;2022-08-19T13:18:12;97759.75;;;43.22;35.43
16806;BME280;8520;50.102;20.010;2022-08-19T13:21:02;97753.88;;;43.05;35.32
16806;BME280;8520;50.102;20.010;2022-08-19T13:23:53;97754.41;;;42.79;35.76
16806;BME280;8520;50.102;20.010;2022-08-19T13:26:42;97753.53;;;42.56;35.54
16806;BME280;8520;50.102;20.010;2022-08-19T13:29:31;97754.97;;;42.53;36.31
16806;BME280;8520;50.102;20.010;2022-08-19T13:32:36;97745.56;;;42.57;35.21
16806;BME280;8520;50.102;20.010;2022-08-19T13:35:46;97749.03;;;42.41;36.33
16806;BME280;8520;50.102;20.010;2022-08-19T13:38:35;97752.16;;;42.66;35.81
16806;BME280;8520;50.102;20.010;2022-08-19T13:41:25;97745.09;;;42.93;36.04
16806;BME280;8520;50.102;20.010;2022-08-19T13:44:15;97742.22;;;42.97;36.12
16806;BME280;8520;50.102;20.010;2022-08-19T13:47:06;97738.00;;;43.17;35.63
16806;BME280;8520;50.102;20.010;2022-08-19T13:49:55;97738.03;;;43.25;35.45
16806;BME280;8520;50.102;20.010;2022-08-19T13:52:44;97736.56;;;43.20;34.50
16806;BME280;8520;50.102;20.010;2022-08-19T13:55:32;97738.06;;;43.27;34.89
16806;BME280;8520;50.102;20.010;2022-08-19T13:58:22;97733.66;;;43.18;34.66
16806;BME280;8520;50.102;20.010;2022-08-19T14:01:11;97735.22;;;43.35;34.63
16806;BME280;8520;50.102;20.010;2022-08-19T14:04:00;97729.38;;;43.33;34.69
16806;BME280;8520;50.102;20.010;2022-08-19T14:06:48;97723.41;;;42.96;35.11
16806;BME280;8520;50.102;20.010;2022-08-19T14:09:37;97718.13;;;42.70;35.02
16806;BME280;8520;50.102;20.010;2022-08-19T14:12:25;97723.13;;;42.57;35.98
16806;BME280;8520;50.102;20.010;2022-08-19T14:15:16;97709.25;;;42.44;35.42
16806;BME280;8520;50.102;20.010;2022-08-19T14:18:05;97716.44;;;42.39;35.24
16806;BME280;8520;50.102;20.010;2022-08-19T14:20:53;97718.13;;;42.70;35.08
16806;BME280;8520;50.102;20.010;2022-08-19T14:23:44;97714.56;;;42.76;34.81
16806;BME280;8520;50.102;20.010;2022-08-19T14:26:33;97714.59;;;42.82;34.31
16806;BME280;8520;50.102;20.010;2022-08-19T14:29:22;97710.84;;;42.61;35.10
16806;BME280;8520;50.102;20.010;2022-08-19T14:32:11;97703.75;;;42.84;34.82
16806;BME280;8520;50.102;20.010;2022-08-19T14:35:03;97697.13;;;42.66;35.37
16806;BME280;8520;50.102;20.010;2022-08-19T14:37:53;97692.41;;;42.18;35.04
16806;BME280;8520;50.102;20.010;2022-08-19T14:40:43;97703.03;;;41.95;35.10
16806;BME280;8520;50.102;20.010;2022-08-19T14:43:33;97687.38;;;42.22;35.24
16806;BME280;8520;50.102;20.010;2022-08-19T14:46:23;97704.88;;;42.41;34.78
16806;BME280;8520;50.102;20.010;2022-08-19T14:49:16;97694.19;;;42.59;34.69
16806;BME280;8520;50.102;20.010;2022-08-19T14:52:05;97700.94;;;42.95;33.96
16806;BME280;8520;50.102;20.010;2022-08-19T14:54:54;97692.88;;;42.83;34.07
16806;BME280;8520;50.102;20.010;2022-08-19T14:57:44;97705.66;;;42.49;34.20
16806;BME280;8520;50.102;20.010;2022-08-19T15:00:33;97707.78;;;42.43;34.40
16806;BME280;8520;50.102;20.010;2022-08-19T15:03:22;97712.06;;;42.31;34.68
16806;BME280;8520;50.102;20.010;2022-08-19T15:06:12;97697.69;;;42.48;35.31
16806;BME280;8520;50.102;20.010;2022-08-19T15:09:01;97696.75;;;42.19;35.25